Tuesday, February 20, 2018, 3:41 PM GMT
Back to Local

CXKT, Kentville , N. S.

Location: , , Canada Lat: 45.067
Local Time: 3:41 PM GMT (15:41 GMT) Lon: -64.483
Time Zone: GMT Elev: 160 ft

Show me the last for .
Show Coded

Time T Td Feel RH Dir Speed Gust Alt SLP Vis Weather Sky Remarks
2018-02-20 15:00 39 39 - 97 90° 1 - - 30.30 0 1-hr Precip Total: 0.01"
2018-02-20 14:00 38 37 - 98 60° 2 - - 30.29 0 None
2018-02-20 13:00 38 38 - 98 - Calm - - 30.29 0 1-hr Precip Total: 0.01"
2018-02-20 12:00 37 37 - 97 - Calm - - 30.27 0 1-hr Precip Total: 0.01"
2018-02-20 11:00 38 37 35 97 140° 3 - - 30.26 0 1-hr Precip Total: 0.02"
2018-02-20 10:00 38 38 - 97 300° 2 - - 30.25 0 1-hr Precip Total: 0.01"
2018-02-20 09:00 38 37 - 97 220° 2 - - 30.24 0 1-hr Precip Total: 0.01"
2018-02-20 08:00 37 36 - 95 250° 2 - - 30.27 0 1-hr Precip Total: 0.01"
2018-02-20 07:00 37 36 - 95 270° 2 - - 30.27 0 1-hr Precip Total: 0.04"
2018-02-20 06:00 36 35 - 95 100° 1 - - 30.31 0 1-hr Precip Total: 0.01"
2018-02-20 05:00 37 34 33 90 240° 5 - - 30.34 0 None
2018-02-20 04:00 37 32 34 81 230° 3 - - 30.35 0 None
2018-02-20 03:00 35 31 29 87 240° 7 - - 30.36 0 None
2018-02-20 02:00 36 31 29 81 210° 9 - - 30.37 0 None
2018-02-20 01:00 35 29 28 79 200° 8 - - 30.40 0 None
2018-02-20 00:00 35 29 28 79 200° 8 - - 30.41 0 None
2018-02-19 23:00 35 29 30 77 220° 6 - - 30.44 0 None
2018-02-19 22:00 35 28 29 75 200° 7 - - 30.44 0 None
2018-02-19 21:00 38 28 33 67 190° 7 - - 30.44 0 None
2018-02-19 20:00 39 28 33 65 190° 8 - - 30.46 0 None
2018-02-19 19:00 38 27 34 63 190° 6 - - 30.49 0 None
2018-02-19 18:00 40 26 34 58 200° 8 - - 30.52 0 Peak wind: 20 mph (18 kts) from 200° at 16 min
2018-02-19 17:00 39 26 33 58 220° 8 - - 30.55 0 None
2018-02-19 16:00 37 23 31 55 230° 9 - - 30.58 0 None

Support USWX by starting your Amazon purchase here.